Time;durP1;ratioP1;P1;durP2;ratioP2;P2;SDS_P1;SDS_P2;PMS_P1;PMS_P2;Temp;Humidity;BMP_temperature;BMP_pressure;BME280_temperature;BME280_humidity;BME280_pressure;Samples;Min_cycle;Max_cycle;Signal;HPM_P1;HPM_P2
2023/10/18 00:01:05;;;;;;;;;;;;;;;17.65;49.44;101646.75;4972930;28;19925;-86
2023/10/18 00:04:10;;;;;;;;;;;;;;;17.66;49.65;101656.44;4931383;28;20293;-85
2023/10/18 00:06:48;;;;;;;;;;;;;;;17.77;49.33;101654.22;4958705;28;19915;-84
2023/10/18 00:09:50;;;;;;;;;;;;;;;17.72;49.46;101660.19;4974230;28;20026;-86
2023/10/18 00:12:20;;;;;;;;;;;;;;;17.75;49.26;101653.25;4969143;28;19918;-85
2023/10/18 00:14:47;;;;;;;;;;;;;;;17.78;49.23;101656.03;4973547;28;19965;-86
2023/10/18 00:17:12;;;;;;;;;;;;;;;17.83;49.24;101662.41;4953054;28;19962;-87
2023/10/18 00:19:40;;;;;;;;;;;;;;;17.84;49.34;101666.88;4930267;29;20483;-87
2023/10/18 00:22:22;;;;;;;;;;;;;;;17.82;49.20;101662.31;4951872;28;19918;-85
2023/10/18 00:24:47;;;;;;;;;;;;;;;17.83;49.33;101665.06;4933858;29;19926;-87
2023/10/18 00:27:13;;;;;;;;;;;;;;;17.95;49.05;101666.38;4949485;28;19918;-85
2023/10/18 00:29:54;;;;;;;;;;;;;;;17.84;49.33;101658.97;4953698;29;19944;-86
2023/10/18 00:32:58;;;;;;;;;;;;;;;17.82;49.29;101665.91;4948286;29;19925;-86
2023/10/18 00:35:42;;;;;;;;;;;;;;;17.75;49.39;101666.47;4951906;28;19919;-86
2023/10/18 00:38:14;;;;;;;;;;;;;;;17.88;49.31;101657.31;4952079;28;20016;-87
2023/10/18 00:40:40;;;;;;;;;;;;;;;17.71;49.84;101656.63;4946891;28;19918;-86
2023/10/18 00:43:22;;;;;;;;;;;;;;;17.83;49.67;101651.84;4948537;28;20399;-88
2023/10/18 00:45:50;;;;;;;;;;;;;;;17.69;50.60;101664.50;4951499;28;19988;-87
2023/10/18 00:48:22;;;;;;;;;;;;;;;17.79;50.61;101652.53;4946803;28;19918;-87
2023/10/18 00:50:52;;;;;;;;;;;;;;;17.72;51.24;101662.84;4950137;28;20508;-88
2023/10/18 00:53:20;;;;;;;;;;;;;;;17.65;51.59;101659.03;4953214;28;19918;-86
2023/10/18 00:56:04;;;;;;;;;;;;;;;17.66;52.05;101659.09;4944744;29;20020;-85
2023/10/18 00:58:31;;;;;;;;;;;;;;;17.68;52.09;101651.22;4951172;28;19918;-87
2023/10/18 01:00:57;;;;;;;;;;;;;;;17.52;52.54;101665.56;4950983;28;19922;-86
2023/10/18 01:03:29;;;;;;;;;;;;;;;17.57;52.42;101661.38;4950583;29;19925;-86
2023/10/18 01:06:00;;;;;;;;;;;;;;;17.43;52.97;101657.28;4952106;28;19919;-86
2023/10/18 01:08:29;;;;;;;;;;;;;;;17.64;52.69;101662.53;4940830;29;19919;-87
2023/10/18 01:10:57;;;;;;;;;;;;;;;17.70;52.55;101666.28;4950938;29;19967;-86
2023/10/18 01:13:23;;;;;;;;;;;;;;;17.63;52.86;101658.97;4942621;29;19921;-87
2023/10/18 01:15:49;;;;;;;;;;;;;;;17.60;52.89;101660.59;4950722;28;19945;-86
2023/10/18 01:18:18;;;;;;;;;;;;;;;17.57;53.09;101660.44;4955362;28;19922;-86
2023/10/18 01:20:46;;;;;;;;;;;;;;;17.58;52.95;101655.25;4953979;28;19918;-89
2023/10/18 01:23:11;;;;;;;;;;;;;;;17.60;52.96;101660.59;4970001;28;20022;-86
2023/10/18 01:25:37;;;;;;;;;;;;;;;17.53;53.21;101661.19;4948201;28;20009;-86
2023/10/18 01:28:03;;;;;;;;;;;;;;;17.54;53.03;101663.00;4947018;28;19918;-86
2023/10/18 01:30:29;;;;;;;;;;;;;;;17.50;53.17;101657.59;4971315;28;20370;-87
2023/10/18 01:32:55;;;;;;;;;;;;;;;17.55;53.04;101663.06;4967110;28;19918;-86
2023/10/18 01:35:21;;;;;;;;;;;;;;;17.57;52.89;101652.53;4937446;28;19961;-86
2023/10/18 01:37:49;;;;;;;;;;;;;;;17.60;53.16;101650.91;4937105;28;19976;-87
2023/10/18 01:42:58;;;;;;;;;;;;;;;17.56;52.92;101654.28;4954990;28;20016;-87
2023/10/18 01:45:30;;;;;;;;;;;;;;;17.50;53.15;101661.97;4953010;28;19918;-87
2023/10/18 01:47:57;;;;;;;;;;;;;;;17.56;53.09;101656.91;4953755;28;19922;-86
2023/10/18 01:50:23;;;;;;;;;;;;;;;17.56;53.30;101642.81;4967591;28;20616;-86
2023/10/18 01:52:48;;;;;;;;;;;;;;;17.54;53.26;101644.50;4934976;28;19922;-87
2023/10/18 01:55:14;;;;;;;;;;;;;;;17.54;53.04;101650.69;4971574;28;20475;-86
2023/10/18 01:57:41;;;;;;;;;;;;;;;17.54;53.56;101652.44;4935067;28;19932;-88
2023/10/18 02:00:12;;;;;;;;;;;;;;;17.50;53.74;101661.97;4954849;28;19918;-86
2023/10/18 02:02:38;;;;;;;;;;;;;;;17.54;53.33;101655.97;4948848;28;20368;-87
2023/10/18 02:05:05;;;;;;;;;;;;;;;17.49;53.52;101668.97;4955135;28;20012;-86
2023/10/18 02:07:31;;;;;;;;;;;;;;;17.50;53.50;101661.97;4954496;28;19918;-88
2023/10/18 02:09:59;;;;;;;;;;;;;;;17.53;53.32;101663.84;4938915;28;20380;-87
2023/10/18 02:12:27;;;;;;;;;;;;;;;17.56;53.22;101671.88;4971951;28;19922;-87
2023/10/18 02:14:55;;;;;;;;;;;;;;;17.58;53.11;101663.16;4929911;29;19918;-87
2023/10/18 02:17:21;;;;;;;;;;;;;;;17.52;53.40;101662.03;4950284;28;19941;-87
2023/10/18 02:19:47;;;;;;;;;;;;;;;17.52;53.59;101662.03;4955030;28;19914;-87
2023/10/18 02:22:13;;;;;;;;;;;;;;;17.52;53.49;101664.66;4953307;28;20320;-86
2023/10/18 02:24:38;;;;;;;;;;;;;;;17.50;53.45;101670.81;4950174;28;19922;-88
2023/10/18 02:27:08;;;;;;;;;;;;;;;17.55;53.59;101670.09;4963085;28;20080;-88
2023/10/18 02:29:39;;;;;;;;;;;;;;;17.48;53.63;101677.75;4933341;29;20002;-87
2023/10/18 02:32:50;;;;;;;;;;;;;;;17.52;53.49;101669.94;4951499;28;19918;-86
2023/10/18 02:34:51;;;;;;;;;;;;;;;17.46;53.55;101665.31;4947487;28;19930;-88
2023/10/18 02:37:17;;;;;;;;;;;;;;;17.48;53.84;101668.91;4945094;28;20319;-87
2023/10/18 02:39:42;;;;;;;;;;;;;;;17.46;53.80;101663.59;4943192;28;19922;-88
2023/10/18 02:42:08;;;;;;;;;;;;;;;17.50;53.63;101644.41;4932469;28;19961;-88
2023/10/18 02:44:35;;;;;;;;;;;;;;;17.46;53.77;101650.41;4947082;28;20437;-88
2023/10/18 02:47:34;;;;;;;;;;;;;;;17.43;53.75;101654.63;4964323;28;19925;-88
2023/10/18 02:49:52;;;;;;;;;;;;;;;17.37;54.01;101671.13;4951492;28;19929;-88
2023/10/18 02:52:18;;;;;;;;;;;;;;;17.37;53.94;101662.31;4936390;28;19922;-87
2023/10/18 02:54:45;;;;;;;;;;;;;;;17.33;54.33;101669.19;4937675;28;19982;-87
2023/10/18 02:57:10;;;;;;;;;;;;;;;17.34;nan;101670.13;4953039;28;19918;-88
2023/10/18 02:59:36;;;;;;;;;;;;;;;17.34;54.25;101668.38;4938152;28;19940;-88
2023/10/18 03:02:03;;;;;;;;;;;;;;;17.28;54.29;101663.72;4938274;28;19918;-89
2023/10/18 03:04:29;;;;;;;;;;;;;;;17.07;54.54;101625.91;4927162;28;19926;-88
2023/10/18 03:06:55;;;;;;;;;;;;;;;17.29;54.51;101662.91;4952461;28;19929;-87
2023/10/18 03:11:59;;;;;;;;;;;;;;;17.23;54.61;101651.16;4958477;28;19922;-86
2023/10/18 03:14:39;;;;;;;;;;;;;;;17.27;54.53;101655.75;4972150;28;19929;-86
2023/10/18 03:17:28;;;;;;;;;;;;;;;17.29;54.44;101648.78;4942712;28;19922;-87
2023/10/18 03:19:55;;;;;;;;;;;;;;;17.23;54.76;101648.53;4971822;28;19917;-85
2023/10/18 03:22:22;;;;;;;;;;;;;;;17.23;54.82;101652.09;4951241;28;19919;-87
2023/10/18 03:24:51;;;;;;;;;;;;;;;17.19;54.75;101644.00;4951788;28;20293;-86
2023/10/18 03:27:16;;;;;;;;;;;;;;;17.21;54.75;101655.53;4952858;28;19933;-86
2023/10/18 03:29:45;;;;;;;;;;;;;;;17.20;54.86;101646.66;4955326;28;19918;-86
2023/10/18 03:32:19;;;;;;;;;;;;;;;17.20;54.83;101657.22;4969885;28;19942;-88
2023/10/18 03:34:44;;;;;;;;;;;;;;;17.22;54.64;101660.84;4942699;29;19968;-86
2023/10/18 03:37:24;;;;;;;;;;;;;;;17.22;55.02;101652.91;4958111;28;19957;-87
2023/10/18 03:39:53;;;;;;;;;;;;;;;17.22;54.86;101652.91;4958149;28;19918;-88
2023/10/18 03:42:31;;;;;;;;;;;;;;;17.19;54.85;101641.34;4954714;28;19922;-88
2023/10/18 03:45:00;;;;;;;;;;;;;;;17.20;54.92;101638.75;4948933;28;19933;-86
2023/10/18 03:47:28;;;;;;;;;;;;;;;17.17;55.12;101637.75;4979207;28;19925;-87
2023/10/18 03:49:55;;;;;;;;;;;;;;;17.19;54.97;101647.53;4959922;28;19977;-85
2023/10/18 03:52:21;;;;;;;;;;;;;;;17.15;54.96;101640.31;4958754;28;19925;-86
2023/10/18 03:57:28;;;;;;;;;;;;;;;17.17;55.09;101648.31;4946463;28;19962;-87
2023/10/18 04:00:21;;;;;;;;;;;;;;;17.13;55.01;101631.44;4938298;28;19918;-85
2023/10/18 04:02:46;;;;;;;;;;;;;;;17.12;55.18;101640.16;4951871;28;19926;-88
2023/10/18 04:05:22;;;;;;;;;;;;;;;17.12;55.14;101636.63;4971818;28;19918;-88
2023/10/18 04:07:48;;;;;;;;;;;;;;;17.15;55.15;101634.16;4937825;28;19992;-89
2023/10/18 04:10:18;;;;;;;;;;;;;;;17.14;54.97;101624.41;4938032;28;19922;-86
2023/10/18 04:12:45;;;;;;;;;;;;;;;17.10;55.12;101626.00;4954313;28;19918;-92
2023/10/18 04:15:32;;;;;;;;;;;;;;;17.10;55.15;101628.66;4938890;28;19952;-88
2023/10/18 04:20:33;;;;;;;;;;;;;;;17.08;55.28;101628.63;4954332;28;19918;-88
2023/10/18 04:22:58;;;;;;;;;;;;;;;17.10;55.21;101623.38;4952902;28;20000;-89
2023/10/18 04:25:32;;;;;;;;;;;;;;;17.09;55.24;101622.47;4951308;28;20019;-86
2023/10/18 04:27:57;;;;;;;;;;;;;;;17.11;55.17;101626.94;4967478;28;19918;-85
2023/10/18 04:30:23;;;;;;;;;;;;;;;17.09;55.37;101635.69;4937454;28;19918;-85
2023/10/18 04:32:59;;;;;;;;;;;;;;;17.11;55.08;101627.84;4969566;28;20449;-86
2023/10/18 04:35:36;;;;;;;;;;;;;;;17.08;55.33;101618.06;4954909;28;19929;-88
2023/10/18 04:38:20;;;;;;;;;;;;;;;17.08;55.25;101625.03;4939000;28;19926;-90
2023/10/18 04:40:52;;;;;;;;;;;;;;;17.07;55.23;101631.19;4953425;28;19927;-88
2023/10/18 04:43:22;;;;;;;;;;;;;;;17.10;55.22;101633.94;4938197;28;19954;-88
2023/10/18 04:45:59;;;;;;;;;;;;;;;17.08;55.26;101635.59;4951603;28;19997;-88
2023/10/18 04:54:01;;;;;;;;;;;;;;;17.03;56.01;101635.41;4967274;28;19918;-86
2023/10/18 04:56:32;;;;;;;;;;;;;;;16.95;56.79;101644.75;4947388;28;19918;-87
2023/10/18 04:58:59;;;;;;;;;;;;;;;16.96;56.35;101633.38;4944896;28;19972;-85
2023/10/18 05:01:32;;;;;;;;;;;;;;;17.00;56.13;101630.03;4941592;28;20016;-85
2023/10/18 05:04:00;;;;;;;;;;;;;;;16.96;56.56;101636.00;4952157;28;19918;-85
2023/10/18 05:06:29;;;;;;;;;;;;;;;16.98;56.49;101641.38;4950408;28;20430;-86
2023/10/18 05:08:56;;;;;;;;;;;;;;;17.00;56.21;101642.34;4967864;28;19922;-87
2023/10/18 05:11:25;;;;;;;;;;;;;;;16.99;56.21;101640.50;4962541;28;19918;-86
2023/10/18 05:13:53;;;;;;;;;;;;;;;17.04;56.26;101652.19;4961596;28;19956;-88
2023/10/18 05:16:21;;;;;;;;;;;;;;;17.02;56.11;101654.75;4933815;28;19930;-87
2023/10/18 05:18:46;;;;;;;;;;;;;;;17.05;55.82;101646.94;4939465;28;19930;-84
2023/10/18 05:21:20;;;;;;;;;;;;;;;17.07;55.82;101652.28;4944056;28;19914;-86
2023/10/18 05:23:46;;;;;;;;;;;;;;;17.03;56.09;101656.53;4946055;28;20021;-84
2023/10/18 05:26:17;;;;;;;;;;;;;;;17.04;56.21;101665.38;4947630;28;20637;-86
2023/10/18 05:32:05;;;;;;;;;;;;;;;16.98;56.58;101671.28;4940017;28;19930;-86
2023/10/18 05:34:48;;;;;;;;;;;;;;;16.99;56.44;101675.72;4945195;28;19925;-87
2023/10/18 05:37:14;;;;;;;;;;;;;;;17.06;56.15;101672.50;4948908;28;20423;-84
2023/10/18 05:39:49;;;;;;;;;;;;;;;17.05;56.20;101675.97;4943445;28;19915;-85
2023/10/18 05:42:20;;;;;;;;;;;;;;;16.99;55.95;101674.81;4936511;28;19919;-89
2023/10/18 05:44:47;;;;;;;;;;;;;;;16.94;57.70;101681.66;4928138;28;19925;-82
2023/10/18 05:47:13;;;;;;;;;;;;;;;17.20;57.21;101670.44;4936735;28;19926;-82
2023/10/18 05:49:41;;;;;;;;;;;;;;;17.29;56.94;101676.13;4946682;28;20014;-85
2023/10/18 05:54:35;;;;;;;;;;;;;;;17.32;54.14;101670.06;4941130;28;19923;-87
2023/10/18 05:57:01;;;;;;;;;;;;;;;17.34;53.53;101678.03;4947074;28;19925;-85
2023/10/18 05:59:33;;;;;;;;;;;;;;;17.54;52.59;101678.84;4942812;28;19926;-85
2023/10/18 06:02:00;;;;;;;;;;;;;;;17.56;52.22;101682.44;4947510;28;20041;-84
2023/10/18 06:04:37;;;;;;;;;;;;;;;17.44;52.36;101680.19;4945552;28;19925;-84
2023/10/18 06:07:09;;;;;;;;;;;;;;;17.56;51.92;101680.69;4942475;28;19918;-87
2023/10/18 06:09:45;;;;;;;;;;;;;;;17.49;51.84;101681.28;4950219;28;19950;-85
2023/10/18 06:12:13;;;;;;;;;;;;;;;17.56;51.55;101685.06;4948139;28;19939;-85
2023/10/18 06:14:44;;;;;;;;;;;;;;;17.65;51.29;101682.78;4950006;28;19985;-86
2023/10/18 06:17:13;;;;;;;;;;;;;;;17.65;50.99;101686.34;4950955;28;19923;-85
2023/10/18 06:19:38;;;;;;;;;;;;;;;17.50;51.24;101689.28;4952315;28;19930;-85
2023/10/18 06:24:48;;;;;;;;;;;;;;;17.65;50.91;101690.72;4952280;28;19928;-87
2023/10/18 06:27:17;;;;;;;;;;;;;;;17.63;50.82;101688.03;4931545;28;20311;-88
2023/10/18 06:29:44;;;;;;;;;;;;;;;17.61;50.74;101687.06;4965584;28;19969;-88
2023/10/18 06:32:13;;;;;;;;;;;;;;;17.65;50.70;101686.34;4954984;28;19980;-87
2023/10/18 06:34:43;;;;;;;;;;;;;;;17.62;50.75;101687.97;4922084;29;20049;-88
2023/10/18 06:37:09;;;;;;;;;;;;;;;17.62;50.60;101690.59;4946139;28;19926;-87
2023/10/18 06:39:35;;;;;;;;;;;;;;;17.54;50.91;101689.41;4953129;28;19918;-88
2023/10/18 06:42:06;;;;;;;;;;;;;;;17.70;50.36;101679.50;4950614;28;19929;-86
2023/10/18 06:44:43;;;;;;;;;;;;;;;17.69;50.18;101690.00;4972548;28;19933;-93
2023/10/18 06:47:16;;;;;;;;;;;;;;;17.64;50.36;101673.97;4944351;28;20576;-87
2023/10/18 06:50:04;;;;;;;;;;;;;;;17.58;50.26;101681.66;4954983;28;20366;-87
2023/10/18 06:52:40;;;;;;;;;;;;;;;17.63;50.33;101677.47;4954493;28;19918;-88
2023/10/18 06:55:06;;;;;;;;;;;;;;;17.74;49.93;101672.59;4935919;28;19922;-88
2023/10/18 06:57:36;;;;;;;;;;;;;;;17.73;50.08;101676.06;4956458;28;19926;-89
2023/10/18 07:00:07;;;;;;;;;;;;;;;17.70;49.85;101675.97;4959966;28;20013;-90
2023/10/18 07:02:32;;;;;;;;;;;;;;;17.70;50.16;101678.63;4942606;28;20376;-90
2023/10/18 07:05:00;;;;;;;;;;;;;;;17.69;50.12;101682.06;4955560;28;19922;-91
2023/10/18 07:07:26;;;;;;;;;;;;;;;17.62;50.07;101685.31;4946108;28;19918;-91
2023/10/18 07:09:56;;;;;;;;;;;;;;;17.75;49.93;101677.03;4939957;28;19915;-88
2023/10/18 07:12:29;;;;;;;;;;;;;;;17.68;50.02;101689.09;4936754;28;19996;-88
2023/10/18 07:14:57;;;;;;;;;;;;;;;17.53;50.55;101693.78;4956333;28;19968;-91
2023/10/18 07:17:24;;;;;;;;;;;;;;;17.46;50.79;101689.06;4935979;29;19930;-89
2023/10/18 07:19:51;;;;;;;;;;;;;;;17.52;51.13;101685.78;4938832;29;19925;-87
2023/10/18 07:22:21;;;;;;;;;;;;;;;17.53;51.20;101687.59;4953518;29;19929;-88
2023/10/18 07:24:59;;;;;;;;;;;;;;;17.57;51.18;101684.22;4953380;29;19918;-88
2023/10/18 07:27:29;;;;;;;;;;;;;;;17.58;51.18;101683.41;4953403;28;19914;-89
2023/10/18 07:30:00;;;;;;;;;;;;;;;17.55;51.28;101678.91;4933895;29;20293;-87
2023/10/18 07:32:28;;;;;;;;;;;;;;;17.57;51.77;101684.22;4949049;29;19914;-88
2023/10/18 07:34:57;;;;;;;;;;;;;;;17.55;51.43;101678.00;4934857;29;19957;-88
2023/10/18 07:37:31;;;;;;;;;;;;;;;17.55;51.21;101680.66;4953204;28;19919;-86
2023/10/18 07:39:57;;;;;;;;;;;;;;;17.62;50.78;101680.03;4950505;29;20066;-88
2023/10/18 07:42:26;;;;;;;;;;;;;;;17.68;50.49;101690.84;4952584;28;19998;-87
2023/10/18 07:44:55;;;;;;;;;;;;;;;17.59;50.49;101686.13;4951699;28;19930;-87
2023/10/18 07:47:25;;;;;;;;;;;;;;;17.70;50.17;101678.63;4953400;29;19926;-86
2023/10/18 07:49:51;;;;;;;;;;;;;;;17.76;50.10;101680.56;4936681;28;20281;-87
2023/10/18 07:52:16;;;;;;;;;;;;;;;17.81;49.77;101677.28;4947342;28;19922;-86
2023/10/18 07:54:42;;;;;;;;;;;;;;;17.86;49.64;101673.13;4946923;28;20437;-88
2023/10/18 07:57:33;;;;;;;;;;;;;;;17.86;49.61;101680.13;4947773;28;19925;-85
2023/10/18 08:00:21;;;;;;;;;;;;;;;17.85;49.61;101679.25;4944231;28;20782;-85
2023/10/18 08:02:43;;;;;;;;;;;;;;;17.86;49.70;101677.50;4942861;28;20393;-88
2023/10/18 08:05:09;;;;;;;;;;;;;;;17.77;50.03;101678.00;4947163;28;20004;-86
2023/10/18 08:07:36;;;;;;;;;;;;;;;17.75;49.93;101684.06;4945831;29;20411;-86
2023/10/18 08:10:07;;;;;;;;;;;;;;;17.79;49.77;101684.25;4945234;29;19927;-87
2023/10/18 08:12:33;;;;;;;;;;;;;;;17.88;49.60;101675.81;4934454;28;19925;-87
2023/10/18 08:14:59;;;;;;;;;;;;;;;17.88;49.60;101687.28;4948508;28;20319;-86
2023/10/18 08:17:44;;;;;;;;;;;;;;;17.82;49.73;101686.09;4946508;29;19926;-86
2023/10/18 08:22:51;;;;;;;;;;;;;;;17.77;49.88;101688.56;4947381;28;20365;-86
2023/10/18 08:25:31;;;;;;;;;;;;;;;17.80;49.59;101688.72;4946997;28;19990;-85
2023/10/18 08:27:57;;;;;;;;;;;;;;;17.84;49.55;101690.66;4934517;29;19926;-86
2023/10/18 08:33:07;;;;;;;;;;;;;;;18.05;48.93;101690.56;4946225;28;20444;-85
2023/10/18 08:35:32;;;;;;;;;;;;;;;18.00;49.15;101693.88;4949788;28;19922;-85
2023/10/18 08:38:04;;;;;;;;;;;;;;;17.86;49.35;101699.56;4949060;28;19918;-85
2023/10/18 08:43:09;;;;;;;;;;;;;;;17.86;49.31;101694.28;4951607;28;20155;-85
2023/10/18 08:45:45;;;;;;;;;;;;;;;17.92;49.19;101697.97;4939171;29;20388;-87
2023/10/18 08:48:15;;;;;;;;;;;;;;;18.03;48.91;101696.63;4953029;29;19922;-85
2023/10/18 08:50:41;;;;;;;;;;;;;;;18.03;48.88;101704.56;4953008;29;19918;-87
2023/10/18 08:53:07;;;;;;;;;;;;;;;18.04;49.11;101704.63;4937035;29;20039;-85
2023/10/18 08:55:45;;;;;;;;;;;;;;;17.98;49.16;101707.03;4943892;29;19919;-86
2023/10/18 08:58:22;;;;;;;;;;;;;;;17.96;49.27;101705.19;4938141;29;19915;-85
2023/10/18 09:03:24;;;;;;;;;;;;;;;18.14;48.96;101708.53;4951980;29;19916;-87
2023/10/18 09:05:49;;;;;;;;;;;;;;;18.17;48.75;101710.41;4953058;28;19925;-88
2023/10/18 09:08:19;;;;;;;;;;;;;;;18.12;48.75;101715.50;4945312;29;20300;-87
2023/10/18 09:10:50;;;;;;;;;;;;;;;18.07;48.87;101712.66;4948306;29;20565;-87
2023/10/18 09:18:19;;;;;;;;;;;;;;;17.94;49.73;101704.22;4972394;28;19930;-88
2023/10/18 09:20:46;;;;;;;;;;;;;;;17.92;49.80;101706.78;4949415;28;20079;-87
2023/10/18 09:23:19;;;;;;;;;;;;;;;17.96;49.75;101707.81;4951968;28;19922;-87
2023/10/18 09:25:48;;;;;;;;;;;;;;;17.90;49.99;101701.44;4956351;28;19914;-87
2023/10/18 09:28:25;;;;;;;;;;;;;;;17.89;50.03;101702.31;4955419;28;19921;-86
2023/10/18 09:31:00;;;;;;;;;;;;;;;18.05;49.56;101708.16;4967891;28;19914;-87
2023/10/18 09:33:38;;;;;;;;;;;;;;;18.09;49.38;101710.97;4973366;28;19982;-85
2023/10/18 09:36:09;;;;;;;;;;;;;;;18.10;49.40;101709.28;4936887;28;19942;-88
2023/10/18 09:38:39;;;;;;;;;;;;;;;18.13;49.18;101708.47;4937620;29;20013;-86
2023/10/18 09:41:04;;;;;;;;;;;;;;;18.04;49.54;101709.03;4955352;28;19918;-87
2023/10/18 09:43:31;;;;;;;;;;;;;;;18.05;49.53;101706.41;4954941;28;19929;-87
2023/10/18 09:45:59;;;;;;;;;;;;;;;18.03;49.70;101710.78;4972772;28;19914;-87
2023/10/18 09:48:25;;;;;;;;;;;;;;;18.08;49.27;101698.63;4955310;28;19941;-87
2023/10/18 09:50:51;;;;;;;;;;;;;;;18.08;49.58;101703.03;4939691;28;19918;-87
2023/10/18 09:53:21;;;;;;;;;;;;;;;18.14;49.24;101700.63;4935082;29;20021;-86
2023/10/18 09:55:47;;;;;;;;;;;;;;;18.08;49.45;101700.38;4941129;28;20395;-86
2023/10/18 09:58:18;;;;;;;;;;;;;;;18.09;49.50;101688.94;4959965;28;19914;-86
2023/10/18 10:00:47;;;;;;;;;;;;;;;18.21;49.10;101692.06;4944655;28;19914;-87
2023/10/18 10:03:16;;;;;;;;;;;;;;;18.14;49.39;101683.81;4942642;28;20017;-86
2023/10/18 10:05:42;;;;;;;;;;;;;;;18.09;49.27;101689.84;4942916;28;19923;-87
2023/10/18 10:08:08;;;;;;;;;;;;;;;18.29;49.03;101695.00;4955528;28;20008;-86
2023/10/18 10:10:43;;;;;;;;;;;;;;;18.17;49.27;101702.47;4959709;28;20399;-87
2023/10/18 10:13:13;;;;;;;;;;;;;;;18.19;49.17;101692.84;4958947;28;19918;-87
2023/10/18 10:15:39;;;;;;;;;;;;;;;18.24;49.05;101691.25;4962099;28;19929;-85
2023/10/18 10:18:06;;;;;;;;;;;;;;;18.30;48.88;101686.22;4957870;28;20388;-85
2023/10/18 10:20:32;;;;;;;;;;;;;;;18.29;48.74;101679.13;4953978;28;19925;-87
2023/10/18 10:23:02;;;;;;;;;;;;;;;18.26;48.82;101674.59;4942134;28;19919;-87
2023/10/18 10:25:31;;;;;;;;;;;;;;;18.35;48.71;101679.38;4955560;28;19918;-87
2023/10/18 10:27:59;;;;;;;;;;;;;;;18.31;48.49;101683.63;4956008;28;20012;-88
2023/10/18 10:30:27;;;;;;;;;;;;;;;18.31;48.67;101685.38;4950593;28;20009;-87
2023/10/18 10:32:53;;;;;;;;;;;;;;;18.35;48.48;101683.72;4951305;28;19914;-87
2023/10/18 10:35:24;;;;;;;;;;;;;;;18.31;48.70;101681.00;4945827;28;19922;-87
2023/10/18 10:38:00;;;;;;;;;;;;;;;18.34;48.63;101685.47;4955517;28;19918;-87
2023/10/18 10:43:02;;;;;;;;;;;;;;;18.40;48.22;101682.16;4936643;28;19922;-87
2023/10/18 10:45:35;;;;;;;;;;;;;;;18.29;48.49;101677.38;4948824;29;19954;-87
2023/10/18 10:48:21;;;;;;;;;;;;;;;18.38;48.39;101684.75;4951609;28;19949;-87
2023/10/18 10:50:53;;;;;;;;;;;;;;;18.50;48.06;101679.91;4959679;28;19922;-88
2023/10/18 10:53:31;;;;;;;;;;;;;;;18.41;48.39;101671.63;4922983;29;19922;-88
2023/10/18 10:55:56;;;;;;;;;;;;;;;18.39;48.24;101675.97;4965451;28;19922;-87
2023/10/18 10:58:22;;;;;;;;;;;;;;;18.34;48.43;101677.53;4942870;28;19921;-87
2023/10/18 11:01:31;;;;;;;;;;;;;;;18.46;48.27;101680.66;4955049;28;19997;-86
2023/10/18 11:03:59;;;;;;;;;;;;;;;18.48;48.12;101668.38;4949260;28;20332;-87
2023/10/18 11:06:26;;;;;;;;;;;;;;;18.41;48.09;101663.69;4956039;28;19921;-86
2023/10/18 11:08:52;;;;;;;;;;;;;;;18.56;47.75;101668.63;4932468;28;19934;-87
2023/10/18 11:11:21;;;;;;;;;;;;;;;18.48;48.03;101667.50;4956898;28;19941;-88
2023/10/18 11:13:47;;;;;;;;;;;;;;;18.40;48.15;101653.97;4943853;28;20337;-87
2023/10/18 11:16:15;;;;;;;;;;;;;;;18.31;48.29;101662.47;4934860;28;19988;-88
2023/10/18 11:18:42;;;;;;;;;;;;;;;18.31;48.42;101657.19;4951829;28;19918;-87
2023/10/18 11:21:29;;;;;;;;;;;;;;;18.38;48.15;101657.41;4956841;28;19974;-87
2023/10/18 11:24:01;;;;;;;;;;;;;;;18.35;48.08;101655.56;4956596;28;19922;-87
2023/10/18 11:26:27;;;;;;;;;;;;;;;18.54;47.74;101650.91;4955874;28;19918;-87
2023/10/18 11:28:59;;;;;;;;;;;;;;;18.40;48.13;101656.63;4954639;28;19914;-88
2023/10/18 11:31:28;;;;;;;;;;;;;;;18.47;47.75;101649.81;4951473;29;19919;-87
2023/10/18 11:36:19;;;;;;;;;;;;;;;18.52;47.93;101650.88;4957781;28;20416;-87
2023/10/18 11:41:34;;;;;;;;;;;;;;;18.52;47.68;101649.13;4949735;28;19924;-88
2023/10/18 11:44:06;;;;;;;;;;;;;;;18.38;48.01;101645.09;4939508;29;19919;-88
2023/10/18 11:46:46;;;;;;;;;;;;;;;18.37;48.05;101648.59;4951901;28;19918;-88
2023/10/18 11:49:21;;;;;;;;;;;;;;;18.41;47.94;101639.00;4948494;28;19922;-91
2023/10/18 11:51:49;;;;;;;;;;;;;;;18.48;47.94;101644.56;4934546;29;19925;-89
2023/10/18 11:54:33;;;;;;;;;;;;;;;18.37;48.27;101635.38;4931390;29;19914;-88
2023/10/18 11:56:59;;;;;;;;;;;;;;;18.29;48.42;101648.28;4944400;29;20397;-88
2023/10/18 11:59:30;;;;;;;;;;;;;;;18.35;48.31;101649.34;4939323;28;19987;-88
2023/10/18 12:01:59;;;;;;;;;;;;;;;18.36;48.27;101648.53;4923776;29;19914;-89
2023/10/18 12:04:27;;;;;;;;;;;;;;;18.37;48.33;101645.03;4959345;28;20012;-88
2023/10/18 12:06:56;;;;;;;;;;;;;;;18.29;48.61;101640.38;4957340;28;19925;-89
2023/10/18 12:11:50;;;;;;;;;;;;;;;18.37;48.38;101640.66;4949239;28;19968;-89
2023/10/18 12:14:15;;;;;;;;;;;;;;;18.37;48.97;101645.94;4956450;28;19930;-89
2023/10/18 12:16:43;;;;;;;;;;;;;;;18.41;48.75;101658.41;4957203;28;19930;-87
2023/10/18 12:19:10;;;;;;;;;;;;;;;18.48;48.81;101648.97;4973740;28;20044;-87
2023/10/18 12:21:38;;;;;;;;;;;;;;;18.49;48.60;101650.75;4956644;28;19918;-88
2023/10/18 12:24:04;;;;;;;;;;;;;;;18.49;48.83;101643.72;4972230;28;20340;-87
2023/10/18 12:26:35;;;;;;;;;;;;;;;18.47;49.06;101647.16;4954016;28;19929;-87
2023/10/18 12:29:07;;;;;;;;;;;;;;;18.55;49.13;101647.44;4941575;28;19918;-89
2023/10/18 12:31:41;;;;;;;;;;;;;;;18.60;48.58;101638.81;4945628;28;19919;-89
2023/10/18 12:34:08;;;;;;;;;;;;;;;18.67;48.62;101639.94;4930645;28;19970;-88
2023/10/18 12:36:37;;;;;;;;;;;;;;;18.77;48.35;101643.78;4945883;28;19921;-90
2023/10/18 12:39:08;;;;;;;;;;;;;;;18.79;48.47;101647.41;4938378;28;19968;-91
2023/10/18 12:41:46;;;;;;;;;;;;;;;18.72;48.42;101636.59;4952839;28;19961;-92
2023/10/18 12:44:17;;;;;;;;;;;;;;;18.77;48.16;101643.78;4955668;28;19961;-91
2023/10/18 12:46:44;;;;;;;;;;;;;;;18.75;48.38;101641.06;4942203;28;20350;-91
2023/10/18 12:49:11;;;;;;;;;;;;;;;18.75;48.24;101643.72;4940948;28;20367;-89
2023/10/18 12:51:57;;;;;;;;;;;;;;;18.71;48.46;101641.81;4956009;28;20315;-90
2023/10/18 12:54:29;;;;;;;;;;;;;;;18.75;48.18;101645.47;4943199;28;19926;-89
2023/10/18 12:56:58;;;;;;;;;;;;;;;18.81;48.06;101643.97;4954009;28;19918;-90
2023/10/18 12:59:23;;;;;;;;;;;;;;;18.75;48.38;101651.66;4950984;28;19992;-89
2023/10/18 13:01:49;;;;;;;;;;;;;;;18.74;48.14;101649.88;4956880;28;20451;-91
2023/10/18 13:04:18;;;;;;;;;;;;;;;18.73;48.22;101645.41;4934559;28;19919;-90
2023/10/18 13:06:44;;;;;;;;;;;;;;;18.67;48.41;101651.41;4937119;29;20009;-88
2023/10/18 13:09:21;;;;;;;;;;;;;;;18.76;48.31;101647.28;4936747;28;20060;-89
2023/10/18 13:14:17;;;;;;;;;;;;;;;18.71;48.37;101649.75;4955511;28;19918;-89
2023/10/18 13:16:45;;;;;;;;;;;;;;;18.77;47.95;101642.03;4955336;28;19989;-90
2023/10/18 13:19:15;;;;;;;;;;;;;;;18.89;47.79;101652.19;4931560;28;19922;-91
2023/10/18 13:21:43;;;;;;;;;;;;;;;18.93;47.67;101640.84;4935816;28;19918;-90
2023/10/18 13:27:15;;;;;;;;;;;;;;;18.79;48.02;101639.47;4896742;29;19919;-90
2023/10/18 13:35:40;;;;;;;;;;;;;;;18.71;48.14;101637.44;4965775;28;19940;-89
2023/10/18 13:38:40;;;;;;;;;;;;;;;18.75;47.95;101632.25;4941160;28;19926;-90
2023/10/18 13:41:07;;;;;;;;;;;;;;;18.78;47.91;101627.06;4956721;28;19984;-90
2023/10/18 13:43:35;;;;;;;;;;;;;;;18.81;47.81;101624.56;4942860;28;19949;-92
2023/10/18 13:46:03;;;;;;;;;;;;;;;18.87;47.54;101624.75;4956635;28;19918;-90
2023/10/18 13:48:31;;;;;;;;;;;;;;;18.89;47.45;101628.38;4932890;28;19940;-90
2023/10/18 13:51:02;;;;;;;;;;;;;;;18.87;47.38;101630.06;4955993;28;19922;-89
2023/10/18 13:53:29;;;;;;;;;;;;;;;18.83;47.44;101628.16;4943669;28;19914;-89